LIBA

Details ICAO LIBA
Name AMENDOLA
Region Italy
Timezone Europe/Rome (UTC+2.0)
Plans Departing 16
Arriving 20
Stats Elevation 183 ft / 56 m (AMSL)
Location 41.539558° 15.713874°
Runways 1
Magnetic Variation 3.638° E
Sunrise 2018-05-25 03:31:13 UTC / 2018-05-25 05:31:13 Local
Sunset 2018-05-25 18:19:49 UTC / 2018-05-25 20:19:49 Local
Advertisement - Login to hide

Runways

ID Width Length Bearing (true) Bearing (mag) Surface Threshold Offset Overrun Length
11 144 ft / 44 m 8,712 ft / 2,655 m 113.80° 110.16° Asphalt 0 ft / 0 m 194 ft / 59 m
29 144 ft / 44 m 8,712 ft / 2,655 m 293.82° 290.18° Asphalt 0 ft / 0 m 198 ft / 60 m

Map

Weather


0- 5 10 15 20 25 30 35+ Temperature / ° C

Clouds and Precipitation
Forecast for 2018-05-25 12:00 UTC. Updated 4 hours ago

Ground ~20,000 ft ~40,000 ft Winds

METAR

LIBA 251455Z 30010KT 9999 FEW030 29/13 Q1013 RMK SCT SCT150 VIS MIN 9999 WIND THR11 29011KT WIND THR29 /////KT BLU

TAF

Not found

Frequencies

Tower 122.10 MHz TWR
Approach 118.85 MHz APP
Tower 118.20 MHz TWR
Warning: Do not use this data for real-world aviation or navigation. No guarantee of current accuracy is given.